sensor_id;sensor_type;location;lat;lon;timestamp;pressure;altitude;pressure_sealevel;temperature
20867;BMP280;10593;48.398;10.698;2023-07-24T00:02:06;95587.16;;;28.21
20867;BMP280;10593;48.398;10.698;2023-07-24T00:04:32;95580.53;;;28.17
20867;BMP280;10593;48.398;10.698;2023-07-24T00:06:59;95580.53;;;28.17
20867;BMP280;10593;48.398;10.698;2023-07-24T00:09:25;95575.56;;;28.15
20867;BMP280;10593;48.398;10.698;2023-07-24T00:11:51;95578.19;;;28.15
20867;BMP280;10593;48.398;10.698;2023-07-24T00:14:16;95567.94;;;28.12
20867;BMP280;10593;48.398;10.698;2023-07-24T00:16:42;95569.91;;;28.10
20867;BMP280;10593;48.398;10.698;2023-07-24T00:19:08;95562.09;;;28.08
20867;BMP280;10593;48.398;10.698;2023-07-24T00:21:34;95565.72;;;28.07
20867;BMP280;10593;48.398;10.698;2023-07-24T00:23:59;95556.28;;;28.05
20867;BMP280;10593;48.398;10.698;2023-07-24T00:26:25;95554.94;;;28.01
20867;BMP280;10593;48.398;10.698;2023-07-24T00:28:51;95555.91;;;28.00
20867;BMP280;10593;48.398;10.698;2023-07-24T00:31:16;95553.25;;;28.00
20867;BMP280;10593;48.398;10.698;2023-07-24T00:33:42;95553.25;;;28.00
20867;BMP280;10593;48.398;10.698;2023-07-24T00:36:08;95550.22;;;27.95
20867;BMP280;10593;48.398;10.698;2023-07-24T00:38:33;95548.56;;;27.94
20867;BMP280;10593;48.398;10.698;2023-07-24T00:40:59;95548.56;;;27.94
20867;BMP280;10593;48.398;10.698;2023-07-24T00:43:25;95543.59;;;27.91
20867;BMP280;10593;48.398;10.698;2023-07-24T00:45:50;95551.50;;;27.91
20867;BMP280;10593;48.398;10.698;2023-07-24T00:48:16;95556.09;;;27.89
20867;BMP280;10593;48.398;10.698;2023-07-24T00:50:43;95565.00;;;27.88
20867;BMP280;10593;48.398;10.698;2023-07-24T00:53:14;95563.34;;;27.87
20867;BMP280;10593;48.398;10.698;2023-07-24T00:55:42;95574.22;;;27.84
20867;BMP280;10593;48.398;10.698;2023-07-24T00:58:11;95574.22;;;27.84
20867;BMP280;10593;48.398;10.698;2023-07-24T01:00:40;95559.19;;;27.84
20867;BMP280;10593;48.398;10.698;2023-07-24T01:03:06;95547.41;;;27.79
20867;BMP280;10593;48.398;10.698;2023-07-24T01:05:32;95552.69;;;27.79
20867;BMP280;10593;48.398;10.698;2023-07-24T01:07:58;95553.84;;;27.76
20867;BMP280;10593;48.398;10.698;2023-07-24T01:10:23;95555.63;;;27.76
20867;BMP280;10593;48.398;10.698;2023-07-24T01:12:59;95555.63;;;27.76
20867;BMP280;10593;48.398;10.698;2023-07-24T01:15:33;95572.59;;;27.73
20867;BMP280;10593;48.398;10.698;2023-07-24T01:18:07;95572.03;;;27.70
20867;BMP280;10593;48.398;10.698;2023-07-24T01:20:38;95572.31;;;27.67
20867;BMP280;10593;48.398;10.698;2023-07-24T01:26:22;95553.44;;;27.62
20867;BMP280;10593;48.398;10.698;2023-07-24T01:28:51;95555.72;;;27.57
20867;BMP280;10593;48.398;10.698;2023-07-24T01:31:17;95555.72;;;27.57
20867;BMP280;10593;48.398;10.698;2023-07-24T01:33:46;95551.38;;;27.56
20867;BMP280;10593;48.398;10.698;2023-07-24T01:36:13;95564.88;;;27.53
20867;BMP280;10593;48.398;10.698;2023-07-24T01:38:41;95590.47;;;27.52
20867;BMP280;10593;48.398;10.698;2023-07-24T01:41:07;95609.06;;;27.51
20867;BMP280;10593;48.398;10.698;2023-07-24T01:43:34;95588.25;;;27.48
20867;BMP280;10593;48.398;10.698;2023-07-24T01:45:59;95638.53;;;27.46
20867;BMP280;10593;48.398;10.698;2023-07-24T01:48:25;95638.53;;;27.46
20867;BMP280;10593;48.398;10.698;2023-07-24T01:50:51;95652.72;;;27.45
20867;BMP280;10593;48.398;10.698;2023-07-24T01:53:16;95627.59;;;27.41
20867;BMP280;10593;48.398;10.698;2023-07-24T01:55:42;95584.69;;;27.39
20867;BMP280;10593;48.398;10.698;2023-07-24T01:58:07;95517.28;;;27.35
20867;BMP280;10593;48.398;10.698;2023-07-24T02:00:33;95485.97;;;27.23
20867;BMP280;10593;48.398;10.698;2023-07-24T02:02:59;95501.69;;;27.15
20867;BMP280;10593;48.398;10.698;2023-07-24T02:05:26;95507.41;;;27.10
20867;BMP280;10593;48.398;10.698;2023-07-24T02:07:51;95507.41;;;27.10
20867;BMP280;10593;48.398;10.698;2023-07-24T02:10:17;95499.91;;;27.06
20867;BMP280;10593;48.398;10.698;2023-07-24T02:12:43;95491.16;;;27.05
20867;BMP280;10593;48.398;10.698;2023-07-24T02:15:09;95472.69;;;27.05
20867;BMP280;10593;48.398;10.698;2023-07-24T02:17:35;95451.75;;;27.04
20867;BMP280;10593;48.398;10.698;2023-07-24T02:20:00;95468.25;;;27.06
20867;BMP280;10593;48.398;10.698;2023-07-24T02:22:26;95492.81;;;27.06
20867;BMP280;10593;48.398;10.698;2023-07-24T02:24:52;95492.81;;;27.06
20867;BMP280;10593;48.398;10.698;2023-07-24T02:27:32;95548.06;;;27.08
20867;BMP280;10593;48.398;10.698;2023-07-24T02:30:01;95548.06;;;27.08
20867;BMP280;10593;48.398;10.698;2023-07-24T02:32:27;95690.28;;;27.11
20867;BMP280;10593;48.398;10.698;2023-07-24T02:34:53;95851.34;;;27.09
20867;BMP280;10593;48.398;10.698;2023-07-24T02:37:19;95850.50;;;27.09
20867;BMP280;10593;48.398;10.698;2023-07-24T02:39:45;95818.44;;;27.04
20867;BMP280;10593;48.398;10.698;2023-07-24T02:42:12;95759.66;;;27.02
20867;BMP280;10593;48.398;10.698;2023-07-24T03:51:59;95502.00;;;26.56
20867;BMP280;10593;48.398;10.698;2023-07-24T03:54:25;95502.00;;;26.56
20867;BMP280;10593;48.398;10.698;2023-07-24T03:56:51;95498.22;;;26.59
20867;BMP280;10593;48.398;10.698;2023-07-24T03:59:16;95512.25;;;26.59
20867;BMP280;10593;48.398;10.698;2023-07-24T04:01:42;95497.41;;;26.58
20867;BMP280;10593;48.398;10.698;2023-07-24T04:04:08;95505.16;;;26.60
20867;BMP280;10593;48.398;10.698;2023-07-24T04:06:34;95539.41;;;26.60
20867;BMP280;10593;48.398;10.698;2023-07-24T04:09:00;95519.88;;;26.62
20867;BMP280;10593;48.398;10.698;2023-07-24T04:11:25;95506.00;;;26.60
20867;BMP280;10593;48.398;10.698;2023-07-24T04:13:51;95506.56;;;26.64
20867;BMP280;10593;48.398;10.698;2023-07-24T04:16:17;95506.56;;;26.64
20867;BMP280;10593;48.398;10.698;2023-07-24T04:18:42;95504.72;;;26.64
20867;BMP280;10593;48.398;10.698;2023-07-24T04:21:08;95471.44;;;26.63
20867;BMP280;10593;48.398;10.698;2023-07-24T04:23:34;95471.44;;;26.63
20867;BMP280;10593;48.398;10.698;2023-07-24T04:25:59;95449.66;;;26.61
20867;BMP280;10593;48.398;10.698;2023-07-24T04:28:25;95456.91;;;26.59
20867;BMP280;10593;48.398;10.698;2023-07-24T04:30:51;95444.97;;;26.55
20867;BMP280;10593;48.398;10.698;2023-07-24T04:33:16;95439.28;;;26.50
20867;BMP280;10593;48.398;10.698;2023-07-24T04:35:42;95446.47;;;26.48
20867;BMP280;10593;48.398;10.698;2023-07-24T04:38:08;95459.66;;;26.48
20867;BMP280;10593;48.398;10.698;2023-07-24T04:40:33;95463.28;;;26.47
20867;BMP280;10593;48.398;10.698;2023-07-24T04:42:59;95472.97;;;26.47
20867;BMP280;10593;48.398;10.698;2023-07-24T04:45:25;95464.06;;;26.48
20867;BMP280;10593;48.398;10.698;2023-07-24T04:47:50;95453.53;;;26.48
20867;BMP280;10593;48.398;10.698;2023-07-24T04:50:16;95438.03;;;26.45
20867;BMP280;10593;48.398;10.698;2023-07-24T04:52:41;95438.03;;;26.45
20867;BMP280;10593;48.398;10.698;2023-07-24T04:55:08;95445.63;;;26.48
20867;BMP280;10593;48.398;10.698;2023-07-24T04:57:33;95453.69;;;26.46
20867;BMP280;10593;48.398;10.698;2023-07-24T04:59:59;95458.97;;;26.46
20867;BMP280;10593;48.398;10.698;2023-07-24T05:02:25;95460.63;;;26.47
20867;BMP280;10593;48.398;10.698;2023-07-24T05:04:50;95465.81;;;26.49
20867;BMP280;10593;48.398;10.698;2023-07-24T05:07:16;95478.00;;;26.50
20867;BMP280;10593;48.398;10.698;2023-07-24T05:09:42;95473.53;;;26.50
20867;BMP280;10593;48.398;10.698;2023-07-24T05:12:08;95463.84;;;26.51
20867;BMP280;10593;48.398;10.698;2023-07-24T05:14:33;95454.97;;;26.52
20867;BMP280;10593;48.398;10.698;2023-07-24T05:16:59;95454.97;;;26.52
20867;BMP280;10593;48.398;10.698;2023-07-24T05:19:24;95453.31;;;26.51
20867;BMP280;10593;48.398;10.698;2023-07-24T05:21:50;95453.31;;;26.51
20867;BMP280;10593;48.398;10.698;2023-07-24T05:24:16;95449.00;;;26.50
20867;BMP280;10593;48.398;10.698;2023-07-24T05:26:41;95456.91;;;26.50
20867;BMP280;10593;48.398;10.698;2023-07-24T05:29:07;95462.19;;;26.50
20867;BMP280;10593;48.398;10.698;2023-07-24T05:31:36;95446.22;;;26.51
20867;BMP280;10593;48.398;10.698;2023-07-24T05:34:02;95433.88;;;26.52
20867;BMP280;10593;48.398;10.698;2023-07-24T05:36:29;95433.88;;;26.52
20867;BMP280;10593;48.398;10.698;2023-07-24T05:38:54;95431.09;;;26.53
20867;BMP280;10593;48.398;10.698;2023-07-24T05:41:20;95433.72;;;26.53
20867;BMP280;10593;48.398;10.698;2023-07-24T05:43:46;95440.53;;;26.56
20867;BMP280;10593;48.398;10.698;2023-07-24T05:46:11;95440.53;;;26.56
20867;BMP280;10593;48.398;10.698;2023-07-24T05:48:37;95447.47;;;26.57
20867;BMP280;10593;48.398;10.698;2023-07-24T05:51:03;95422.06;;;26.56
20867;BMP280;10593;48.398;10.698;2023-07-24T05:53:28;95422.06;;;26.56
20867;BMP280;10593;48.398;10.698;2023-07-24T05:56:01;95408.91;;;26.56
20867;BMP280;10593;48.398;10.698;2023-07-24T05:58:29;95414.16;;;26.56
20867;BMP280;10593;48.398;10.698;2023-07-24T06:00:56;95416.81;;;26.56
20867;BMP280;10593;48.398;10.698;2023-07-24T06:03:24;95422.19;;;26.54
20867;BMP280;10593;48.398;10.698;2023-07-24T06:05:53;95426.25;;;26.58
20867;BMP280;10593;48.398;10.698;2023-07-24T06:08:21;95425.25;;;26.59
20867;BMP280;10593;48.398;10.698;2023-07-24T06:10:48;95426.06;;;26.60
20867;BMP280;10593;48.398;10.698;2023-07-24T06:13:17;95436.34;;;26.63
20867;BMP280;10593;48.398;10.698;2023-07-24T06:15:43;95433.25;;;26.67
20867;BMP280;10593;48.398;10.698;2023-07-24T06:18:10;95433.25;;;26.67
20867;BMP280;10593;48.398;10.698;2023-07-24T06:20:36;95432.28;;;26.68
20867;BMP280;10593;48.398;10.698;2023-07-24T06:23:02;95436.63;;;26.69
20867;BMP280;10593;48.398;10.698;2023-07-24T06:25:31;95441.72;;;26.71
20867;BMP280;10593;48.398;10.698;2023-07-24T06:27:57;95487.22;;;26.73
20867;BMP280;10593;48.398;10.698;2023-07-24T06:30:23;95501.09;;;26.75
20867;BMP280;10593;48.398;10.698;2023-07-24T06:32:49;95541.63;;;26.74
20867;BMP280;10593;48.398;10.698;2023-07-24T06:35:15;95588.97;;;26.75
20867;BMP280;10593;48.398;10.698;2023-07-24T06:37:40;95593.38;;;26.75
20867;BMP280;10593;48.398;10.698;2023-07-24T06:40:09;95598.13;;;26.71
20867;BMP280;10593;48.398;10.698;2023-07-24T06:42:35;95608.00;;;26.69
20867;BMP280;10593;48.398;10.698;2023-07-24T06:45:02;95611.72;;;26.67
20867;BMP280;10593;48.398;10.698;2023-07-24T06:47:27;95606.56;;;26.65
20867;BMP280;10593;48.398;10.698;2023-07-24T06:49:54;95616.44;;;26.63
20867;BMP280;10593;48.398;10.698;2023-07-24T06:52:20;95616.44;;;26.63
20867;BMP280;10593;48.398;10.698;2023-07-24T06:54:46;95615.34;;;26.56
20867;BMP280;10593;48.398;10.698;2023-07-24T06:57:11;95618.66;;;26.58
20867;BMP280;10593;48.398;10.698;2023-07-24T06:59:37;95603.38;;;26.52
20867;BMP280;10593;48.398;10.698;2023-07-24T07:02:03;95603.38;;;26.52
20867;BMP280;10593;48.398;10.698;2023-07-24T07:04:29;95599.25;;;26.50
20867;BMP280;10593;48.398;10.698;2023-07-24T07:06:55;95605.88;;;26.44
20867;BMP280;10593;48.398;10.698;2023-07-24T07:09:22;95588.41;;;26.43
20867;BMP280;10593;48.398;10.698;2023-07-24T07:11:47;95595.44;;;26.43
20867;BMP280;10593;48.398;10.698;2023-07-24T07:14:13;95595.56;;;26.41
20867;BMP280;10593;48.398;10.698;2023-07-24T07:16:39;95617.50;;;26.42
20867;BMP280;10593;48.398;10.698;2023-07-24T07:19:04;95604.47;;;26.40
20867;BMP280;10593;48.398;10.698;2023-07-24T07:21:30;95609.88;;;26.39
20867;BMP280;10593;48.398;10.698;2023-07-24T07:23:56;95618.06;;;26.36
20867;BMP280;10593;48.398;10.698;2023-07-24T07:26:21;95619.84;;;26.35
20867;BMP280;10593;48.398;10.698;2023-07-24T07:28:48;95619.84;;;26.35
20867;BMP280;10593;48.398;10.698;2023-07-24T07:33:49;95617.22;;;26.35
20867;BMP280;10593;48.398;10.698;2023-07-24T07:54:24;95471.22;;;26.28
20867;BMP280;10593;48.398;10.698;2023-07-24T07:56:51;95448.59;;;26.26
20867;BMP280;10593;48.398;10.698;2023-07-24T07:59:18;95433.91;;;26.23
20867;BMP280;10593;48.398;10.698;2023-07-24T08:01:45;95433.91;;;26.23
20867;BMP280;10593;48.398;10.698;2023-07-24T08:04:13;95441.69;;;26.25
20867;BMP280;10593;48.398;10.698;2023-07-24T08:06:38;95447.63;;;26.27
20867;BMP280;10593;48.398;10.698;2023-07-24T08:09:04;95458.16;;;26.27
20867;BMP280;10593;48.398;10.698;2023-07-24T08:11:30;95465.09;;;26.28
20867;BMP280;10593;48.398;10.698;2023-07-24T08:13:56;95476.47;;;26.28
20867;BMP280;10593;48.398;10.698;2023-07-24T08:16:22;95488.69;;;26.29
20867;BMP280;10593;48.398;10.698;2023-07-24T08:18:48;95500.03;;;26.30
20867;BMP280;10593;48.398;10.698;2023-07-24T08:21:15;95503.66;;;26.29
20867;BMP280;10593;48.398;10.698;2023-07-24T08:23:42;95498.94;;;26.32
20867;BMP280;10593;48.398;10.698;2023-07-24T08:26:07;95492.97;;;26.30
20867;BMP280;10593;48.398;10.698;2023-07-24T08:28:33;95512.66;;;26.36
20867;BMP280;10593;48.398;10.698;2023-07-24T08:43:59;95519.44;;;26.48
20867;BMP280;10593;48.398;10.698;2023-07-24T08:46:27;95528.78;;;26.52
20867;BMP280;10593;48.398;10.698;2023-07-24T08:51:30;95505.44;;;26.57
20867;BMP280;10593;48.398;10.698;2023-07-24T08:53:57;95492.94;;;26.59
20867;BMP280;10593;48.398;10.698;2023-07-24T09:04:09;95500.03;;;26.68
20867;BMP280;10593;48.398;10.698;2023-07-24T09:14:23;95479.56;;;26.79
20867;BMP280;10593;48.398;10.698;2023-07-24T09:24:35;95467.34;;;26.88
20867;BMP280;10593;48.398;10.698;2023-07-24T09:29:37;95480.66;;;26.96
20867;BMP280;10593;48.398;10.698;2023-07-24T09:34:42;95480.06;;;27.02
20867;BMP280;10593;48.398;10.698;2023-07-24T09:42:35;95479.91;;;27.13
20867;BMP280;10593;48.398;10.698;2023-07-24T09:45:05;95480.31;;;27.18
20867;BMP280;10593;48.398;10.698;2023-07-24T09:47:31;95480.31;;;27.18
20867;BMP280;10593;48.398;10.698;2023-07-24T09:49:59;95469.47;;;27.21
20867;BMP280;10593;48.398;10.698;2023-07-24T09:52:29;95468.88;;;27.27
20867;BMP280;10593;48.398;10.698;2023-07-24T09:55:41;95458.41;;;27.35
20867;BMP280;10593;48.398;10.698;2023-07-24T09:58:11;95458.41;;;27.35
20867;BMP280;10593;48.398;10.698;2023-07-24T10:00:37;95467.38;;;27.42
20867;BMP280;10593;48.398;10.698;2023-07-24T10:03:04;95467.38;;;27.42
20867;BMP280;10593;48.398;10.698;2023-07-24T10:05:30;95459.19;;;27.45
20867;BMP280;10593;48.398;10.698;2023-07-24T10:07:58;95451.97;;;27.47
20867;BMP280;10593;48.398;10.698;2023-07-24T10:10:24;95448.22;;;27.49
20867;BMP280;10593;48.398;10.698;2023-07-24T10:12:54;95440.13;;;27.51
20867;BMP280;10593;48.398;10.698;2023-07-24T10:15:20;95431.38;;;27.50
20867;BMP280;10593;48.398;10.698;2023-07-24T10:17:47;95425.94;;;27.52
20867;BMP280;10593;48.398;10.698;2023-07-24T10:20:16;95418.88;;;27.52
20867;BMP280;10593;48.398;10.698;2023-07-24T10:22:42;95418.88;;;27.52
20867;BMP280;10593;48.398;10.698;2023-07-24T10:25:10;95425.94;;;27.52
20867;BMP280;10593;48.398;10.698;2023-07-24T10:27:41;95425.94;;;27.52
20867;BMP280;10593;48.398;10.698;2023-07-24T10:30:08;95437.03;;;27.55
20867;BMP280;10593;48.398;10.698;2023-07-24T10:32:48;95438.41;;;27.59
20867;BMP280;10593;48.398;10.698;2023-07-24T10:35:15;95438.41;;;27.59
20867;BMP280;10593;48.398;10.698;2023-07-24T10:37:43;95432.28;;;27.59
20867;BMP280;10593;48.398;10.698;2023-07-24T10:40:20;95432.81;;;27.62
20867;BMP280;10593;48.398;10.698;2023-07-24T10:42:46;95419.69;;;27.70
20867;BMP280;10593;48.398;10.698;2023-07-24T10:45:12;95419.69;;;27.70
20867;BMP280;10593;48.398;10.698;2023-07-24T10:47:38;95415.97;;;27.73
20867;BMP280;10593;48.398;10.698;2023-07-24T10:50:04;95418.16;;;27.77
20867;BMP280;10593;48.398;10.698;2023-07-24T10:52:31;95429.22;;;27.81
20867;BMP280;10593;48.398;10.698;2023-07-24T10:55:01;95426.00;;;27.87
20867;BMP280;10593;48.398;10.698;2023-07-24T10:57:29;95418.63;;;27.90
20867;BMP280;10593;48.398;10.698;2023-07-24T10:59:54;95407.06;;;27.91
20867;BMP280;10593;48.398;10.698;2023-07-24T11:02:21;95410.91;;;27.97
20867;BMP280;10593;48.398;10.698;2023-07-24T11:04:48;95417.69;;;27.99
20867;BMP280;10593;48.398;10.698;2023-07-24T11:07:14;95419.19;;;28.02
20867;BMP280;10593;48.398;10.698;2023-07-24T11:09:41;95421.53;;;28.05
20867;BMP280;10593;48.398;10.698;2023-07-24T11:12:13;95427.22;;;28.10
20867;BMP280;10593;48.398;10.698;2023-07-24T11:14:47;95412.84;;;28.12
20867;BMP280;10593;48.398;10.698;2023-07-24T11:17:13;95399.47;;;28.14
20867;BMP280;10593;48.398;10.698;2023-07-24T11:19:39;95381.50;;;28.17
20867;BMP280;10593;48.398;10.698;2023-07-24T11:22:05;95370.31;;;28.23
20867;BMP280;10593;48.398;10.698;2023-07-24T11:24:32;95370.31;;;28.23
20867;BMP280;10593;48.398;10.698;2023-07-24T11:26:57;95384.59;;;28.30
20867;BMP280;10593;48.398;10.698;2023-07-24T11:29:23;95384.59;;;28.30
20867;BMP280;10593;48.398;10.698;2023-07-24T11:31:56;95389.72;;;28.31
20867;BMP280;10593;48.398;10.698;2023-07-24T11:34:23;95392.06;;;28.34
20867;BMP280;10593;48.398;10.698;2023-07-24T11:36:50;95412.22;;;28.35
20867;BMP280;10593;48.398;10.698;2023-07-24T11:39:23;95429.75;;;28.36
20867;BMP280;10593;48.398;10.698;2023-07-24T11:41:51;95503.47;;;28.39
20867;BMP280;10593;48.398;10.698;2023-07-24T11:44:28;95503.47;;;28.39
20867;BMP280;10593;48.398;10.698;2023-07-24T11:47:05;95538.81;;;28.38
20867;BMP280;10593;48.398;10.698;2023-07-24T11:49:34;95598.94;;;28.36
20867;BMP280;10593;48.398;10.698;2023-07-24T11:52:05;95598.94;;;28.36
20867;BMP280;10593;48.398;10.698;2023-07-24T11:54:34;95623.19;;;28.32
20867;BMP280;10593;48.398;10.698;2023-07-24T11:57:02;95631.22;;;28.30
20867;BMP280;10593;48.398;10.698;2023-07-24T11:59:37;95625.38;;;28.27
20867;BMP280;10593;48.398;10.698;2023-07-24T12:02:05;95629.31;;;28.23
20867;BMP280;10593;48.398;10.698;2023-07-24T12:04:32;95621.84;;;28.18
20867;BMP280;10593;48.398;10.698;2023-07-24T12:06:58;95612.69;;;28.13
20867;BMP280;10593;48.398;10.698;2023-07-24T12:09:31;95608.53;;;28.11
20867;BMP280;10593;48.398;10.698;2023-07-24T12:12:00;95601.88;;;28.07
20867;BMP280;10593;48.398;10.698;2023-07-24T12:14:28;95603.28;;;28.01
20867;BMP280;10593;48.398;10.698;2023-07-24T12:17:03;95592.22;;;27.98
20867;BMP280;10593;48.398;10.698;2023-07-24T12:19:35;95566.25;;;27.93
20867;BMP280;10593;48.398;10.698;2023-07-24T12:22:02;95559.88;;;27.86
20867;BMP280;10593;48.398;10.698;2023-07-24T12:24:34;95564.59;;;27.83
20867;BMP280;10593;48.398;10.698;2023-07-24T12:27:01;95575.34;;;27.81
20867;BMP280;10593;48.398;10.698;2023-07-24T12:29:26;95602.88;;;27.79
20867;BMP280;10593;48.398;10.698;2023-07-24T12:31:53;95562.88;;;27.74
20867;BMP280;10593;48.398;10.698;2023-07-24T12:34:19;95538.25;;;27.73
20867;BMP280;10593;48.398;10.698;2023-07-24T12:36:44;95538.25;;;27.73
20867;BMP280;10593;48.398;10.698;2023-07-24T12:39:12;95527.69;;;27.73
20867;BMP280;10593;48.398;10.698;2023-07-24T12:41:38;95480.44;;;27.70
20867;BMP280;10593;48.398;10.698;2023-07-24T12:44:05;95452.38;;;27.69
20867;BMP280;10593;48.398;10.698;2023-07-24T12:46:31;95452.38;;;27.69
20867;BMP280;10593;48.398;10.698;2023-07-24T12:48:57;95454.16;;;27.69
20867;BMP280;10593;48.398;10.698;2023-07-24T12:51:22;95440.28;;;27.67
20867;BMP280;10593;48.398;10.698;2023-07-24T12:53:48;95433.66;;;27.63
20867;BMP280;10593;48.398;10.698;2023-07-24T12:58:51;95431.00;;;27.63
20867;BMP280;10593;48.398;10.698;2023-07-24T13:01:16;95431.00;;;27.63
20867;BMP280;10593;48.398;10.698;2023-07-24T13:03:42;95416.16;;;27.62
20867;BMP280;10593;48.398;10.698;2023-07-24T13:06:08;95409.88;;;27.63
20867;BMP280;10593;48.398;10.698;2023-07-24T13:08:33;95404.47;;;27.64
20867;BMP280;10593;48.398;10.698;2023-07-24T13:10:59;95381.38;;;27.66
20867;BMP280;10593;48.398;10.698;2023-07-24T13:26:22;95405.91;;;27.59
20867;BMP280;10593;48.398;10.698;2023-07-24T13:28:48;95405.91;;;27.59
20867;BMP280;10593;48.398;10.698;2023-07-24T13:31:19;95398.66;;;27.61
20867;BMP280;10593;48.398;10.698;2023-07-24T13:33:45;95389.75;;;27.62
20867;BMP280;10593;48.398;10.698;2023-07-24T13:36:11;95395.84;;;27.62
20867;BMP280;10593;48.398;10.698;2023-07-24T13:38:37;95320.97;;;27.63
20867;BMP280;10593;48.398;10.698;2023-07-24T13:41:03;95320.97;;;27.63
20867;BMP280;10593;48.398;10.698;2023-07-24T13:43:31;95326.38;;;27.62
20867;BMP280;10593;48.398;10.698;2023-07-24T13:45:57;95330.00;;;27.61
20867;BMP280;10593;48.398;10.698;2023-07-24T13:48:24;95357.38;;;27.60
20867;BMP280;10593;48.398;10.698;2023-07-24T13:50:50;95359.72;;;27.63
20867;BMP280;10593;48.398;10.698;2023-07-24T13:53:16;95359.72;;;27.63
20867;BMP280;10593;48.398;10.698;2023-07-24T13:55:42;95341.25;;;27.63
20867;BMP280;10593;48.398;10.698;2023-07-24T13:58:08;95341.09;;;27.64
20867;BMP280;10593;48.398;10.698;2023-07-24T14:00:34;95351.50;;;27.66
20867;BMP280;10593;48.398;10.698;2023-07-24T14:02:59;95358.59;;;27.65
20867;BMP280;10593;48.398;10.698;2023-07-24T14:05:25;95359.41;;;27.66
20867;BMP280;10593;48.398;10.698;2023-07-24T14:07:51;95365.53;;;27.66
20867;BMP280;10593;48.398;10.698;2023-07-24T14:10:17;95374.28;;;27.67
20867;BMP280;10593;48.398;10.698;2023-07-24T14:12:42;95370.66;;;27.68
20867;BMP280;10593;48.398;10.698;2023-07-24T14:15:09;95337.69;;;27.72
20867;BMP280;10593;48.398;10.698;2023-07-24T14:17:34;95337.69;;;27.72
20867;BMP280;10593;48.398;10.698;2023-07-24T14:20:02;95329.63;;;27.73
20867;BMP280;10593;48.398;10.698;2023-07-24T14:22:28;95326.00;;;27.74
20867;BMP280;10593;48.398;10.698;2023-07-24T14:24:54;95332.50;;;27.80
20867;BMP280;10593;48.398;10.698;2023-07-24T14:27:19;95332.50;;;27.80
20867;BMP280;10593;48.398;10.698;2023-07-24T14:29:45;95342.06;;;27.81
20867;BMP280;10593;48.398;10.698;2023-07-24T14:32:11;95344.56;;;27.82
20867;BMP280;10593;48.398;10.698;2023-07-24T14:34:36;95341.78;;;27.84
20867;BMP280;10593;48.398;10.698;2023-07-24T14:37:02;95346.75;;;27.87
20867;BMP280;10593;48.398;10.698;2023-07-24T14:39:28;95334.22;;;27.89
20867;BMP280;10593;48.398;10.698;2023-07-24T14:41:55;95319.91;;;27.91
20867;BMP280;10593;48.398;10.698;2023-07-24T14:44:20;95334.59;;;27.94
20867;BMP280;10593;48.398;10.698;2023-07-24T14:46:47;95352.78;;;27.97
20867;BMP280;10593;48.398;10.698;2023-07-24T14:51:48;95391.25;;;27.99
20867;BMP280;10593;48.398;10.698;2023-07-24T14:54:14;95391.25;;;27.99
20867;BMP280;10593;48.398;10.698;2023-07-24T14:56:40;95388.63;;;27.99
20867;BMP280;10593;48.398;10.698;2023-07-24T14:59:05;95379.88;;;27.99
20867;BMP280;10593;48.398;10.698;2023-07-24T15:01:31;95369.16;;;28.00
20867;BMP280;10593;48.398;10.698;2023-07-24T15:03:57;95352.47;;;28.00
20867;BMP280;10593;48.398;10.698;2023-07-24T15:06:23;95328.53;;;28.01
20867;BMP280;10593;48.398;10.698;2023-07-24T15:08:50;95329.38;;;28.02
20867;BMP280;10593;48.398;10.698;2023-07-24T15:11:22;95313.53;;;28.02
20867;BMP280;10593;48.398;10.698;2023-07-24T15:13:51;95324.09;;;28.02
20867;BMP280;10593;48.398;10.698;2023-07-24T15:16:17;95324.09;;;28.02
20867;BMP280;10593;48.398;10.698;2023-07-24T15:18:43;95346.34;;;27.99
20867;BMP280;10593;48.398;10.698;2023-07-24T15:21:10;95356.09;;;27.99
20867;BMP280;10593;48.398;10.698;2023-07-24T15:23:36;95356.09;;;27.99
20867;BMP280;10593;48.398;10.698;2023-07-24T15:26:02;95348.47;;;27.96
20867;BMP280;10593;48.398;10.698;2023-07-24T15:28:28;95344.47;;;27.92
20867;BMP280;10593;48.398;10.698;2023-07-24T15:30:54;95330.28;;;27.93
20867;BMP280;10593;48.398;10.698;2023-07-24T15:33:20;95330.28;;;27.93
20867;BMP280;10593;48.398;10.698;2023-07-24T15:35:45;95321.69;;;27.91
20867;BMP280;10593;48.398;10.698;2023-07-24T15:38:12;95319.19;;;27.89
20867;BMP280;10593;48.398;10.698;2023-07-24T15:40:39;95319.19;;;27.89
20867;BMP280;10593;48.398;10.698;2023-07-24T15:43:07;95324.47;;;27.89
20867;BMP280;10593;48.398;10.698;2023-07-24T15:45:33;95336.03;;;27.88
20867;BMP280;10593;48.398;10.698;2023-07-24T15:47:59;95332.56;;;27.88
20867;BMP280;10593;48.398;10.698;2023-07-24T17:02:31;95263.56;;;27.65
20867;BMP280;10593;48.398;10.698;2023-07-24T17:05:03;95262.38;;;27.68
20867;BMP280;10593;48.398;10.698;2023-07-24T17:07:28;95262.38;;;27.68
20867;BMP280;10593;48.398;10.698;2023-07-24T17:09:54;95271.16;;;27.68
20867;BMP280;10593;48.398;10.698;2023-07-24T17:12:19;95267.66;;;27.68
20867;BMP280;10593;48.398;10.698;2023-07-24T17:14:45;95264.03;;;27.69
20867;BMP280;10593;48.398;10.698;2023-07-24T17:17:11;95270.16;;;27.69
20867;BMP280;10593;48.398;10.698;2023-07-24T17:19:36;95280.59;;;27.71
20867;BMP280;10593;48.398;10.698;2023-07-24T17:22:02;95280.59;;;27.71
20867;BMP280;10593;48.398;10.698;2023-07-24T17:24:28;95276.13;;;27.71
20867;BMP280;10593;48.398;10.698;2023-07-24T17:26:54;95274.31;;;27.72
20867;BMP280;10593;48.398;10.698;2023-07-24T17:29:20;95272.66;;;27.71
20867;BMP280;10593;48.398;10.698;2023-07-24T17:31:46;95275.31;;;27.71
20867;BMP280;10593;48.398;10.698;2023-07-24T17:34:12;95272.66;;;27.71
20867;BMP280;10593;48.398;10.698;2023-07-24T17:36:38;95268.38;;;27.70
20867;BMP280;10593;48.398;10.698;2023-07-24T17:39:04;95268.38;;;27.70
20867;BMP280;10593;48.398;10.698;2023-07-24T17:41:29;95263.09;;;27.70
20867;BMP280;10593;48.398;10.698;2023-07-24T17:43:55;95263.09;;;27.70
20867;BMP280;10593;48.398;10.698;2023-07-24T17:46:21;95270.31;;;27.68